createdAt,value
2019-06-02T00:00:24.226Z,18.75
2019-06-02T00:01:09.732Z,18.65
2019-06-02T00:02:09.757Z,18.58
2019-06-02T00:03:09.776Z,18.58
2019-06-02T00:04:09.801Z,18.57
2019-06-02T00:05:09.582Z,18.63
2019-06-02T00:06:09.849Z,18.52
2019-06-02T00:07:09.875Z,18.58
2019-06-02T00:08:09.943Z,18.54
2019-06-02T00:09:09.925Z,18.39
2019-06-02T00:10:09.694Z,18.51
2019-06-02T00:11:24.627Z,18.48
2019-06-02T00:12:09.992Z,18.36
2019-06-02T00:13:24.798Z,18.44
2019-06-02T00:14:25.466Z,18.41
2019-06-02T00:15:09.875Z,18.41
2019-06-02T00:16:10.091Z,18.39
2019-06-02T00:17:10.119Z,18.41
2019-06-02T00:18:10.186Z,18.41
2019-06-02T00:19:10.151Z,18.39
2019-06-02T00:20:09.688Z,18.33
2019-06-02T00:21:10.199Z,18.32
2019-06-02T00:22:09.981Z,18.41
2019-06-02T00:23:10.251Z,18.35
2019-06-02T00:25:25.904Z,18.37
2019-06-02T00:26:10.313Z,18.33
2019-06-02T00:27:10.356Z,18.33
2019-06-02T00:28:10.611Z,18.29
2019-06-02T00:29:25.755Z,18.2
2019-06-02T00:30:10.196Z,18.32
2019-06-02T00:31:10.437Z,18.23
2019-06-02T00:32:10.224Z,18.27
2019-06-02T00:33:10.238Z,18.26
2019-06-02T00:34:10.501Z,18.17
2019-06-02T00:35:10.371Z,18.12
2019-06-02T00:36:10.561Z,18.12
2019-06-02T00:37:10.571Z,18.08
2019-06-02T00:38:10.696Z,18.08
2019-06-02T00:39:10.634Z,18.07
2019-06-02T00:40:26.461Z,17.99
2019-06-02T00:41:10.782Z,18.05
2019-06-02T00:42:10.690Z,18.02
2019-06-02T00:43:10.716Z,17.95
2019-06-02T00:44:10.739Z,17.96
2019-06-02T00:45:25.427Z,17.92
2019-06-02T00:46:10.783Z,17.96
2019-06-02T00:47:10.806Z,17.97
2019-06-02T00:48:10.980Z,17.89
2019-06-02T00:49:10.867Z,17.84
2019-06-02T00:50:10.634Z,17.82
2019-06-02T00:51:10.903Z,17.89
2019-06-02T00:52:10.673Z,17.81
2019-06-02T00:53:10.955Z,17.84
2019-06-02T00:54:11.073Z,17.82
2019-06-02T00:55:10.503Z,17.86
2019-06-02T00:56:11.017Z,17.7
2019-06-02T00:57:11.040Z,17.84
2019-06-02T00:58:10.862Z,17.75
2019-06-02T00:59:11.085Z,17.82
2019-06-02T01:00:25.775Z,17.79
2019-06-02T01:01:11.307Z,17.81
2019-06-02T01:02:11.158Z,17.81
2019-06-02T01:03:11.180Z,17.77
2019-06-02T01:04:11.212Z,17.81
2019-06-02T01:05:11.228Z,17.78
2019-06-02T01:06:11.315Z,17.68
2019-06-02T01:07:11.272Z,17.62
2019-06-02T01:08:11.488Z,17.71
2019-06-02T01:09:11.315Z,17.68
2019-06-02T01:11:11.376Z,17.52
2019-06-02T01:12:11.385Z,17.49
2019-06-02T01:13:11.409Z,17.63
2019-06-02T01:14:11.435Z,17.59
2019-06-02T01:15:14.027Z,17.54
2019-06-02T01:16:11.518Z,17.54
2019-06-02T01:17:11.503Z,17.44
2019-06-02T01:18:11.279Z,17.49
2019-06-02T01:19:11.607Z,17.58
2019-06-02T01:20:11.326Z,17.49
2019-06-02T01:21:11.619Z,17.49
2019-06-02T01:22:11.621Z,17.38
2019-06-02T01:23:11.647Z,17.4
2019-06-02T01:24:11.663Z,17.41
2019-06-02T01:25:11.442Z,17.3
2019-06-02T01:26:26.377Z,17.34
2019-06-02T01:27:11.734Z,17.23
2019-06-02T01:28:11.757Z,17.31
2019-06-02T01:29:26.460Z,17.31
2019-06-02T01:30:11.814Z,17.31
2019-06-02T01:31:11.824Z,17.21
2019-06-02T01:32:26.515Z,17.25
2019-06-02T01:33:11.390Z,17.26
2019-06-02T01:34:11.894Z,17.23
2019-06-02T01:35:11.919Z,17.23
2019-06-02T01:36:11.941Z,17.18
2019-06-02T01:37:11.974Z,17.23
2019-06-02T01:38:11.780Z,17.19
2019-06-02T01:39:12.009Z,17.23
2019-06-02T01:40:12.044Z,17.25
2019-06-02T01:43:26.767Z,17.22
2019-06-02T01:44:26.790Z,17.18
2019-06-02T01:45:36.958Z,17.19
2019-06-02T01:46:12.172Z,17.14
2019-06-02T01:47:12.207Z,17.04
2019-06-02T01:48:26.890Z,17.08
2019-06-02T01:49:12.262Z,17.19
2019-06-02T01:51:12.290Z,17.06
2019-06-02T01:52:12.312Z,17.15
2019-06-02T01:53:12.338Z,17.15
2019-06-02T01:54:12.407Z,17.08
2019-06-02T01:55:12.129Z,17.01
2019-06-02T01:56:12.436Z,17.03
2019-06-02T01:58:12.501Z,16.97
2019-06-02T01:59:12.471Z,17.07
2019-06-02T02:00:12.263Z,17
2019-06-02T02:01:12.520Z,17.04
2019-06-02T02:02:12.301Z,17.06
2019-06-02T02:03:12.563Z,17.04
2019-06-02T02:04:27.248Z,17.07
2019-06-02T02:05:12.611Z,17.08
2019-06-02T02:06:12.858Z,17.04
2019-06-02T02:08:12.739Z,16.96
2019-06-02T02:09:12.705Z,17.08
2019-06-02T02:10:12.731Z,17.04
2019-06-02T02:11:12.744Z,17.01
2019-06-02T02:13:12.802Z,16.93
2019-06-02T02:14:12.815Z,16.93
2019-06-02T02:15:12.886Z,16.91
2019-06-02T02:16:27.523Z,16.93
2019-06-02T02:17:27.547Z,16.96
2019-06-02T02:19:12.926Z,16.83
2019-06-02T02:20:27.616Z,16.93
2019-06-02T02:21:12.983Z,16.86
2019-06-02T02:23:13.029Z,16.82
2019-06-02T02:24:13.049Z,16.86
2019-06-02T02:25:13.080Z,16.86
2019-06-02T02:27:13.111Z,16.86
2019-06-02T02:28:13.444Z,16.81
2019-06-02T02:29:13.156Z,16.81
2019-06-02T02:31:13.229Z,16.64
2019-06-02T02:32:13.223Z,16.7
2019-06-02T02:33:13.261Z,16.7
2019-06-02T02:34:13.284Z,16.71
2019-06-02T02:35:27.964Z,16.76
2019-06-02T02:36:13.337Z,16.7
2019-06-02T02:37:13.345Z,16.68
2019-06-02T02:38:13.599Z,16.68
2019-06-02T02:39:13.149Z,16.64
2019-06-02T02:40:13.420Z,16.64
2019-06-02T02:41:13.434Z,16.71
2019-06-02T02:42:13.455Z,16.67
2019-06-02T02:43:13.483Z,16.63
2019-06-02T02:44:13.507Z,16.64
2019-06-02T02:45:13.555Z,16.63
2019-06-02T02:46:18.083Z,16.64
2019-06-02T02:47:13.572Z,16.6
2019-06-02T02:48:13.811Z,16.67
2019-06-02T02:49:13.622Z,16.66
2019-06-02T02:50:13.672Z,16.6
2019-06-02T02:51:13.662Z,16.56
2019-06-02T02:52:13.704Z,16.61
2019-06-02T02:53:13.474Z,16.6
2019-06-02T02:54:13.736Z,16.5
2019-06-02T02:55:13.778Z,16.46
2019-06-02T02:56:13.771Z,16.48
2019-06-02T02:58:13.848Z,16.48
2019-06-02T02:59:13.843Z,16.46
2019-06-02T03:00:13.879Z,16.52
2019-06-02T03:01:28.551Z,16.56
2019-06-02T03:02:13.908Z,16.52
2019-06-02T03:03:13.943Z,16.49
2019-06-02T03:04:13.966Z,16.6
2019-06-02T03:05:14.017Z,16.52
2019-06-02T03:06:14.023Z,16.63
2019-06-02T03:07:28.698Z,16.64
2019-06-02T03:08:14.345Z,16.61
2019-06-02T03:09:14.117Z,16.67
2019-06-02T03:10:14.090Z,16.7
2019-06-02T03:11:28.834Z,16.64
2019-06-02T03:12:14.143Z,16.63
2019-06-02T03:13:14.169Z,16.66
2019-06-02T03:15:14.223Z,16.67
2019-06-02T03:16:38.018Z,16.73
2019-06-02T03:17:14.251Z,16.81
2019-06-02T03:18:14.372Z,16.76
2019-06-02T03:19:14.299Z,16.86
2019-06-02T03:20:14.323Z,16.85
2019-06-02T03:21:14.343Z,16.86
2019-06-02T03:22:14.369Z,16.96
2019-06-02T03:23:29.048Z,16.93
2019-06-02T03:24:14.415Z,16.97
2019-06-02T03:25:14.435Z,17.03
2019-06-02T03:26:14.474Z,17.07
2019-06-02T03:27:14.474Z,17.11
2019-06-02T03:28:29.313Z,17.08
2019-06-02T03:29:14.531Z,17
2019-06-02T03:31:14.704Z,17.06
2019-06-02T03:32:14.619Z,17.12
2019-06-02T03:33:29.302Z,17.16
2019-06-02T03:35:14.675Z,17.21
2019-06-02T03:36:14.718Z,17.25
2019-06-02T03:37:14.721Z,17.23
2019-06-02T03:38:14.772Z,17.25
2019-06-02T03:39:29.419Z,17.28
2019-06-02T03:40:14.806Z,17.33
2019-06-02T03:41:14.811Z,17.43
2019-06-02T03:42:14.821Z,17.41
2019-06-02T03:43:14.846Z,17.41
2019-06-02T03:44:14.876Z,17.59
2019-06-02T03:45:14.914Z,17.59
2019-06-02T03:46:14.931Z,17.68
2019-06-02T03:47:14.944Z,17.66
2019-06-02T03:49:14.993Z,17.71
2019-06-02T03:50:14.754Z,17.7
2019-06-02T03:51:15.048Z,17.7
2019-06-02T03:52:15.050Z,17.89
2019-06-02T03:54:15.098Z,17.96
2019-06-02T03:55:29.781Z,18.08
2019-06-02T03:56:15.150Z,18.14
2019-06-02T03:57:15.178Z,18.12
2019-06-02T03:58:29.905Z,18.11
2019-06-02T04:00:15.243Z,18.26
2019-06-02T04:01:15.283Z,18.41
2019-06-02T04:02:15.283Z,18.45
2019-06-02T04:03:15.316Z,18.45
2019-06-02T04:04:15.324Z,18.52
2019-06-02T04:05:15.360Z,18.57
2019-06-02T04:06:15.375Z,18.57
2019-06-02T04:07:15.395Z,18.65
2019-06-02T04:08:15.624Z,18.7
2019-06-02T04:09:15.461Z,18.73
2019-06-02T04:11:15.489Z,18.98
2019-06-02T04:12:15.516Z,19.02
2019-06-02T04:13:30.205Z,19.04
2019-06-02T04:14:15.561Z,19.04
2019-06-02T04:15:15.340Z,19.08
2019-06-02T04:16:15.610Z,19.06
2019-06-02T04:17:18.235Z,19.16
2019-06-02T04:18:19.494Z,19.07
2019-06-02T04:19:15.672Z,19.08
2019-06-02T04:20:15.697Z,19.02
2019-06-02T04:21:15.723Z,18.8
2019-06-02T04:22:15.746Z,18.88
2019-06-02T04:23:15.774Z,18.81
2019-06-02T04:24:15.796Z,18.76
2019-06-02T04:25:15.815Z,18.87
2019-06-02T04:26:15.842Z,18.9
2019-06-02T04:27:15.869Z,18.91
2019-06-02T04:28:16.102Z,18.92
2019-06-02T04:29:15.912Z,18.95
2019-06-02T04:30:15.934Z,18.95
2019-06-02T04:31:20.536Z,19.06
2019-06-02T04:32:15.979Z,19.06
2019-06-02T04:33:16.009Z,19.14
2019-06-02T04:34:15.775Z,19.23
2019-06-02T04:35:16.052Z,19.39
2019-06-02T04:36:30.740Z,19.48
2019-06-02T04:37:16.098Z,19.55
2019-06-02T04:38:16.158Z,19.68
2019-06-02T04:39:16.156Z,19.74
2019-06-02T04:40:16.207Z,19.71
2019-06-02T04:41:16.202Z,19.77
2019-06-02T04:42:30.909Z,19.86
2019-06-02T04:43:16.249Z,19.95
2019-06-02T04:44:16.287Z,19.98
2019-06-02T04:45:16.302Z,19.96
2019-06-02T04:46:16.318Z,19.99
2019-06-02T04:47:38.050Z,20.02
2019-06-02T04:48:16.365Z,20.1
2019-06-02T04:49:16.405Z,20.16
2019-06-02T04:50:16.434Z,20.26
2019-06-02T04:51:16.435Z,20.55
2019-06-02T04:52:16.460Z,21.03
2019-06-02T04:53:16.479Z,21.65
2019-06-02T04:54:16.504Z,22.72
2019-06-02T04:55:16.533Z,23.76
2019-06-02T04:56:31.211Z,24.12
2019-06-02T04:57:16.575Z,24.02
2019-06-02T04:58:31.271Z,23.75
2019-06-02T04:59:16.643Z,23.36
2019-06-02T05:00:16.657Z,23.16
2019-06-02T05:01:16.679Z,22.88
2019-06-02T05:02:16.707Z,22.72
2019-06-02T05:03:16.736Z,22.46
2019-06-02T05:05:16.772Z,22.2
2019-06-02T05:06:16.802Z,22.21
2019-06-02T05:07:16.834Z,21.84
2019-06-02T05:09:16.879Z,21.52
2019-06-02T05:10:16.910Z,21.4
2019-06-02T05:11:31.589Z,21.17
2019-06-02T05:12:16.961Z,20.97
2019-06-02T05:14:31.662Z,20.92
2019-06-02T05:15:16.774Z,20.8
2019-06-02T05:16:17.101Z,20.64
2019-06-02T05:17:17.074Z,20.64
2019-06-02T05:18:17.107Z,20.7
2019-06-02T05:19:17.132Z,20.85
2019-06-02T05:20:17.148Z,20.92
2019-06-02T05:22:17.192Z,21.62
2019-06-02T05:23:17.246Z,23.07
2019-06-02T05:24:32.673Z,24.13
2019-06-02T05:25:17.024Z,24.53
2019-06-02T05:26:31.960Z,24.88
2019-06-02T05:28:17.361Z,24.58
2019-06-02T05:29:17.404Z,24.31
2019-06-02T05:30:32.063Z,24.12
2019-06-02T05:31:17.426Z,24.02
2019-06-02T05:33:17.478Z,23.68
2019-06-02T05:34:17.501Z,23.47
2019-06-02T05:35:17.531Z,23.35
2019-06-02T05:36:17.553Z,23.23
2019-06-02T05:37:17.584Z,23.15
2019-06-02T05:38:17.606Z,23.17
2019-06-02T05:40:17.842Z,23.01
2019-06-02T05:41:17.683Z,23.15
2019-06-02T05:42:32.373Z,23.54
2019-06-02T05:43:17.733Z,23.53
2019-06-02T05:44:17.775Z,23.76
2019-06-02T05:45:32.453Z,24.02
2019-06-02T05:46:17.826Z,23.98
2019-06-02T05:47:17.837Z,24.06
2019-06-02T05:48:20.320Z,24.27
2019-06-02T05:49:17.906Z,24.1
2019-06-02T05:50:17.916Z,24.25
2019-06-02T05:51:18.026Z,24.49
2019-06-02T05:52:32.644Z,24.58
2019-06-02T05:53:17.993Z,24.4
2019-06-02T05:54:18.022Z,24.83
2019-06-02T05:55:18.054Z,25.23
2019-06-02T05:56:18.261Z,25.13
2019-06-02T05:57:18.101Z,25.03
2019-06-02T05:58:32.796Z,24.93
2019-06-02T05:59:18.166Z,24.8
2019-06-02T06:00:18.193Z,24.83
2019-06-02T06:01:18.217Z,24.93
2019-06-02T06:02:18.232Z,25.17
2019-06-02T06:03:18.273Z,25.17
2019-06-02T06:04:18.284Z,25.06
2019-06-02T06:05:18.321Z,24.77
2019-06-02T06:07:18.365Z,24.46
2019-06-02T06:09:18.421Z,24.55
2019-06-02T06:10:18.455Z,24.37
2019-06-02T06:11:18.482Z,24.43
2019-06-02T06:12:18.533Z,24.55
2019-06-02T06:13:18.538Z,24.55
2019-06-02T06:14:18.553Z,24.55
2019-06-02T06:15:18.580Z,24.5
2019-06-02T06:16:18.616Z,24.68
2019-06-02T06:17:33.303Z,24.9
2019-06-02T06:18:34.747Z,25.09
2019-06-02T06:19:18.690Z,25.2
2019-06-02T06:20:18.464Z,25.28
2019-06-02T06:21:18.764Z,25.05
2019-06-02T06:23:18.794Z,25.47
2019-06-02T06:24:18.581Z,26.01
2019-06-02T06:25:18.853Z,26.44
2019-06-02T06:26:18.880Z,26.92
2019-06-02T06:27:18.899Z,27.02
2019-06-02T06:28:18.934Z,27.54
2019-06-02T06:29:18.994Z,27.43
2019-06-02T06:30:33.653Z,28.22
2019-06-02T06:31:19.034Z,28.85
2019-06-02T06:32:19.042Z,28.92
2019-06-02T06:33:36.449Z,28.68
2019-06-02T06:34:19.107Z,28.64
2019-06-02T06:35:19.134Z,28.56
2019-06-02T06:36:19.159Z,28.58
2019-06-02T06:37:19.190Z,28.67
2019-06-02T06:38:19.221Z,28.56
2019-06-02T06:39:31.332Z,28.41
2019-06-02T06:40:19.276Z,28.39
2019-06-02T06:41:19.310Z,27.94
2019-06-02T06:42:19.336Z,27.82
2019-06-02T06:43:19.364Z,27.65
2019-06-02T06:44:34.061Z,27
2019-06-02T06:45:19.434Z,26.95
2019-06-02T06:46:19.509Z,26.72
2019-06-02T06:47:19.485Z,26.7
2019-06-02T06:48:19.515Z,27
2019-06-02T06:49:34.208Z,27.66
2019-06-02T06:50:19.566Z,27.94
2019-06-02T06:51:19.630Z,28.48
2019-06-02T06:52:19.669Z,28.93
2019-06-02T06:53:19.659Z,29.68
2019-06-02T06:54:19.699Z,30.34
2019-06-02T06:55:19.473Z,31.36
2019-06-02T06:56:19.750Z,31.76
2019-06-02T06:58:19.609Z,32.21
2019-06-02T06:59:19.840Z,32.33
2019-06-02T07:00:19.872Z,32.48
2019-06-02T07:01:19.668Z,32.7
2019-06-02T07:02:19.946Z,33
2019-06-02T07:03:19.975Z,32.85
2019-06-02T07:04:19.998Z,32.87
2019-06-02T07:05:34.708Z,33.06
2019-06-02T07:06:20.065Z,33.16
2019-06-02T07:07:20.098Z,33.16
2019-06-02T07:08:20.141Z,33.65
2019-06-02T07:10:20.198Z,33.69
2019-06-02T07:11:20.284Z,33.98
2019-06-02T07:12:20.266Z,34.31
2019-06-02T07:13:20.301Z,34.64
2019-06-02T07:14:20.341Z,34.31
2019-06-02T07:15:19.868Z,34.65
2019-06-02T07:16:20.406Z,34.88
2019-06-02T07:17:20.443Z,34.89
2019-06-02T07:18:20.480Z,34.53
2019-06-02T07:19:38.226Z,34.77
2019-06-02T07:20:35.209Z,34.89
2019-06-02T07:21:20.575Z,35.15
2019-06-02T07:22:26.893Z,34.8
2019-06-02T07:23:20.649Z,34.58
2019-06-02T07:24:20.697Z,34.3
2019-06-02T07:25:20.717Z,34.25
2019-06-02T07:26:20.762Z,34.27
2019-06-02T07:27:20.784Z,34.34
2019-06-02T07:28:20.816Z,34.88
2019-06-02T07:29:35.570Z,35.25
2019-06-02T07:30:20.896Z,35.4
2019-06-02T07:31:20.926Z,34.53
2019-06-02T07:32:20.959Z,34.75
2019-06-02T07:33:20.989Z,35.23
2019-06-02T07:34:21.040Z,35.82
2019-06-02T07:35:21.060Z,35.75
2019-06-02T07:36:21.157Z,35.9
2019-06-02T07:37:21.131Z,36.28
2019-06-02T07:39:21.202Z,36.37
2019-06-02T07:40:21.000Z,36.19
2019-06-02T07:41:21.288Z,36.75
2019-06-02T07:42:21.309Z,36.25
2019-06-02T07:43:21.349Z,35.82
2019-06-02T07:44:21.384Z,36.12
2019-06-02T07:45:21.418Z,36
2019-06-02T07:46:21.456Z,36.38
2019-06-02T07:47:21.521Z,36.5
2019-06-02T07:48:21.529Z,36.16
2019-06-02T07:49:34.195Z,36.53
2019-06-02T07:50:21.342Z,36.9
2019-06-02T07:51:21.654Z,36.69
2019-06-02T07:52:36.340Z,36.72
2019-06-02T07:53:21.701Z,36.83
2019-06-02T07:54:21.789Z,36.94
2019-06-02T07:55:21.772Z,36.94
2019-06-02T07:56:21.817Z,37.18
2019-06-02T07:57:21.878Z,36.93
2019-06-02T07:59:21.938Z,36.72
2019-06-02T08:00:21.977Z,37.34
2019-06-02T08:01:26.547Z,37.12
2019-06-02T08:02:36.694Z,37.29
2019-06-02T08:03:22.094Z,37.6
2019-06-02T08:04:22.122Z,37.51
2019-06-02T08:05:21.656Z,37.6
2019-06-02T08:06:23.596Z,38.09
2019-06-02T08:07:22.208Z,37.6
2019-06-02T08:08:36.908Z,37.62
2019-06-02T08:10:21.815Z,37.69
2019-06-02T08:11:22.348Z,37.57
2019-06-02T08:12:22.389Z,37.34
2019-06-02T08:13:22.423Z,36.85
2019-06-02T08:14:22.471Z,37.22
2019-06-02T08:15:22.247Z,37.66
2019-06-02T08:16:22.539Z,37.1
2019-06-02T08:17:22.577Z,36.91
2019-06-02T08:18:22.623Z,36.84
2019-06-02T08:19:22.639Z,36.71
2019-06-02T08:20:25.763Z,36.94
2019-06-02T08:21:22.717Z,37.02
2019-06-02T08:22:22.787Z,37.13
2019-06-02T08:23:22.793Z,37.49
2019-06-02T08:24:37.488Z,37.49
2019-06-02T08:25:22.359Z,37.84
2019-06-02T08:26:22.892Z,37.03
2019-06-02T08:28:37.656Z,35.87
2019-06-02T08:29:23.001Z,35.93
2019-06-02T08:30:26.710Z,35.68
2019-06-02T08:31:23.079Z,35.16
2019-06-02T08:32:22.896Z,35.14
2019-06-02T08:33:23.151Z,35.55
2019-06-02T08:34:23.179Z,35.84
2019-06-02T08:35:22.969Z,36.13
2019-06-02T08:36:23.254Z,36.19
2019-06-02T08:37:23.291Z,37
2019-06-02T08:38:23.326Z,37.64
2019-06-02T08:39:23.357Z,37.67
2019-06-02T08:40:38.062Z,37.31
2019-06-02T08:41:23.438Z,37.32
2019-06-02T08:42:23.549Z,37.4
2019-06-02T08:44:23.539Z,37.4
2019-06-02T08:45:23.588Z,37.51
2019-06-02T08:46:23.609Z,37.74
2019-06-02T08:47:23.649Z,36.98
2019-06-02T08:48:23.688Z,36.71
2019-06-02T08:49:23.716Z,36.91
2019-06-02T08:50:39.445Z,36.85
2019-06-02T08:51:23.785Z,37.17
2019-06-02T08:52:34.270Z,37.12
2019-06-02T08:53:23.860Z,37.17
2019-06-02T08:54:23.894Z,37.39
2019-06-02T08:55:38.598Z,37.2
2019-06-02T08:56:23.719Z,37.32
2019-06-02T08:57:24.012Z,37.62
2019-06-02T08:58:24.212Z,37.44
2019-06-02T08:59:24.082Z,37.27
2019-06-02T09:01:24.146Z,36.93
2019-06-02T09:02:24.181Z,36.64
2019-06-02T09:03:24.212Z,36.62
2019-06-02T09:04:24.252Z,36.91
2019-06-02T09:05:24.290Z,37.34
2019-06-02T09:06:38.988Z,36.8
2019-06-02T09:07:24.363Z,36.94
2019-06-02T09:08:24.395Z,37.02
2019-06-02T09:09:24.429Z,37.05
2019-06-02T09:10:26.254Z,36.71
2019-06-02T09:11:24.507Z,36.81
2019-06-02T09:12:24.533Z,36.6
2019-06-02T09:13:24.565Z,37.18
2019-06-02T09:14:24.602Z,37.4
2019-06-02T09:15:24.664Z,37.21
2019-06-02T09:16:24.682Z,36.94
2019-06-02T09:17:24.714Z,36.73
2019-06-02T09:18:24.763Z,36.32
2019-06-02T09:19:24.779Z,36.34
2019-06-02T09:20:38.037Z,36.41
2019-06-02T09:21:24.853Z,36.73
2019-06-02T09:22:24.887Z,37.31
2019-06-02T09:23:39.584Z,37.6
2019-06-02T09:24:24.954Z,37.55
2019-06-02T09:25:25.031Z,37.64
2019-06-02T09:26:25.029Z,37.64
2019-06-02T09:27:39.772Z,37.6
2019-06-02T09:28:25.114Z,38
2019-06-02T09:29:24.882Z,37.85
2019-06-02T09:30:25.169Z,38
2019-06-02T09:31:25.195Z,37.86
2019-06-02T09:33:25.265Z,37.66
2019-06-02T09:34:25.067Z,38.04
2019-06-02T09:35:42.803Z,38.25
2019-06-02T09:36:25.367Z,38.28
2019-06-02T09:37:40.069Z,38.03
2019-06-02T09:38:25.437Z,37.63
2019-06-02T09:39:25.488Z,37.24
2019-06-02T09:40:25.520Z,36.99
2019-06-02T09:41:25.550Z,36.49
2019-06-02T09:42:25.570Z,36.71
2019-06-02T09:43:40.273Z,36.87
2019-06-02T09:44:41.632Z,36.59
2019-06-02T09:45:25.675Z,36.8
2019-06-02T09:46:25.709Z,36.95
2019-06-02T09:47:25.789Z,36.87
2019-06-02T09:48:25.787Z,37.18
2019-06-02T09:49:40.485Z,37.49
2019-06-02T09:50:41.723Z,37.75
2019-06-02T09:51:25.887Z,37.96
2019-06-02T09:52:25.667Z,38.07
2019-06-02T09:53:40.618Z,37.63
2019-06-02T09:54:40.653Z,37.72
2019-06-02T09:55:26.023Z,37.81
2019-06-02T09:56:40.718Z,37.75
2019-06-02T09:57:26.088Z,38
2019-06-02T09:59:40.822Z,38.42
2019-06-02T10:00:27.672Z,38.18
2019-06-02T10:01:26.246Z,38.25
2019-06-02T10:02:26.256Z,38.25
2019-06-02T10:03:54.732Z,37.81
2019-06-02T10:04:26.323Z,37.59
2019-06-02T10:05:26.380Z,37.63
2019-06-02T10:06:26.395Z,37.56
2019-06-02T10:07:26.437Z,38.06
2019-06-02T10:08:26.506Z,38.44
2019-06-02T10:09:26.494Z,38.19
2019-06-02T10:10:26.526Z,38.44
2019-06-02T10:11:26.578Z,38.41
2019-06-02T10:12:26.598Z,37.98
2019-06-02T10:13:26.630Z,37.91
2019-06-02T10:14:26.665Z,38.19
2019-06-02T10:15:41.411Z,37.75
2019-06-02T10:16:26.789Z,37.82
2019-06-02T10:17:26.769Z,37.34
2019-06-02T10:18:26.807Z,37.76
2019-06-02T10:19:26.836Z,37.89
2019-06-02T10:20:26.864Z,38.03
2019-06-02T10:21:26.903Z,37.57
2019-06-02T10:22:26.940Z,37.6
2019-06-02T10:24:27.011Z,38.03
2019-06-02T10:25:27.037Z,37.72
2019-06-02T10:26:41.734Z,37.81
2019-06-02T10:27:27.118Z,37.76
2019-06-02T10:28:27.144Z,37.34
2019-06-02T10:29:27.170Z,37.15
2019-06-02T10:30:41.869Z,37
2019-06-02T10:31:27.237Z,36.64
2019-06-02T10:32:27.280Z,36.27
2019-06-02T10:33:27.301Z,36.15
2019-06-02T10:34:27.355Z,35.65
2019-06-02T10:35:27.369Z,35.44
2019-06-02T10:36:44.545Z,35.29
2019-06-02T10:37:27.438Z,35.4
2019-06-02T10:38:27.474Z,35
2019-06-02T10:39:27.510Z,34.97
2019-06-02T10:40:27.542Z,34.66
2019-06-02T10:41:27.586Z,34.65
2019-06-02T10:42:42.269Z,34.82
2019-06-02T10:43:27.642Z,34.66
2019-06-02T10:44:27.669Z,34.12
2019-06-02T10:45:42.943Z,33.65
2019-06-02T10:46:27.737Z,33.91
2019-06-02T10:47:27.771Z,34.1
2019-06-02T10:49:27.832Z,34.17
2019-06-02T10:50:48.527Z,33.69
2019-06-02T10:51:35.678Z,34.06
2019-06-02T10:52:27.936Z,34.24
2019-06-02T10:53:27.964Z,33.94
2019-06-02T10:54:28.010Z,33.86
2019-06-02T10:57:28.105Z,33.65
2019-06-02T10:59:28.167Z,33.71
2019-06-02T11:00:28.221Z,33.76
2019-06-02T11:01:28.229Z,33.72
2019-06-02T11:02:42.923Z,33.66
2019-06-02T11:03:32.752Z,33.68
2019-06-02T11:04:28.331Z,33.59
2019-06-02T11:05:43.027Z,33.59
2019-06-02T11:06:28.385Z,33.42
2019-06-02T11:07:28.423Z,33.45
2019-06-02T11:08:28.455Z,33.44
2019-06-02T11:09:28.499Z,33.38
2019-06-02T11:11:28.550Z,33.26
2019-06-02T11:12:28.575Z,33.51
2019-06-02T11:13:28.607Z,33.61
2019-06-02T11:14:28.654Z,33.72
2019-06-02T11:15:43.353Z,33.72
2019-06-02T11:16:28.704Z,33.49
2019-06-02T11:17:28.748Z,33.49
2019-06-02T11:18:43.434Z,33.37
2019-06-02T11:19:28.799Z,33.47
2019-06-02T11:20:30.880Z,33.42
2019-06-02T11:21:43.628Z,33.19
2019-06-02T11:22:28.891Z,33.34
2019-06-02T11:23:28.922Z,33.47
2019-06-02T11:24:28.956Z,33.57
2019-06-02T11:25:28.984Z,33.63
2019-06-02T11:26:29.025Z,33.54
2019-06-02T11:27:29.064Z,33.6
2019-06-02T11:28:29.079Z,33.44
2019-06-02T11:29:29.119Z,33.41
2019-06-02T11:30:29.153Z,33.45
2019-06-02T11:31:43.839Z,33.16
2019-06-02T11:32:29.221Z,32.85
2019-06-02T11:33:29.236Z,32.77
2019-06-02T11:34:43.935Z,32.99
2019-06-02T11:35:29.366Z,33.18
2019-06-02T11:36:29.328Z,33.39
2019-06-02T11:37:29.361Z,33.03
2019-06-02T11:38:29.397Z,32.66
2019-06-02T11:39:29.422Z,32.33
2019-06-02T11:40:44.753Z,32.74
2019-06-02T11:41:44.163Z,32.7
2019-06-02T11:42:29.520Z,32.62
2019-06-02T11:43:29.554Z,32.82
2019-06-02T11:44:29.581Z,32.67
2019-06-02T11:45:44.278Z,32.44
2019-06-02T11:46:29.640Z,32.56
2019-06-02T11:47:29.736Z,32.82
2019-06-02T11:48:29.703Z,33
2019-06-02T11:49:29.736Z,33.07
2019-06-02T11:50:44.433Z,32.87
2019-06-02T11:51:29.806Z,32.74
2019-06-02T11:52:30.950Z,32.99
2019-06-02T11:53:30.715Z,32.99
2019-06-02T11:55:31.281Z,33.31
2019-06-02T11:56:31.206Z,33.45
2019-06-02T11:57:31.264Z,33.45
2019-06-02T11:58:30.008Z,33.53
2019-06-02T11:59:44.725Z,33
2019-06-02T12:00:31.695Z,32.82
2019-06-02T12:01:30.173Z,32.82
2019-06-02T12:03:30.169Z,32.96
2019-06-02T12:04:29.966Z,33.03
2019-06-02T12:05:44.892Z,33.15
2019-06-02T12:06:31.230Z,33.14
2019-06-02T12:07:30.459Z,33.31
2019-06-02T12:08:31.236Z,33.44
2019-06-02T12:09:30.579Z,33.54
2019-06-02T12:10:30.446Z,33.63
2019-06-02T12:11:31.554Z,33.75
2019-06-02T12:12:34.576Z,33.73
2019-06-02T12:13:31.593Z,33.65
2019-06-02T12:14:35.846Z,33.59
2019-06-02T12:15:31.728Z,33.51
2019-06-02T12:17:30.594Z,33.68
2019-06-02T12:18:30.433Z,33.84
2019-06-02T12:19:30.680Z,33.75
2019-06-02T12:20:34.590Z,33.87
2019-06-02T12:21:30.716Z,33.78
2019-06-02T12:22:30.756Z,33.63
2019-06-02T12:23:30.777Z,33.72
2019-06-02T12:24:35.010Z,33.86
2019-06-02T12:25:30.840Z,33.86
2019-06-02T12:26:30.868Z,33.94
2019-06-02T12:27:30.912Z,34.02
2019-06-02T12:28:30.930Z,33.79
2019-06-02T12:29:30.964Z,33.81
2019-06-02T12:30:33.450Z,33.57
2019-06-02T12:31:45.692Z,33.59
2019-06-02T12:32:31.241Z,33.66
2019-06-02T12:33:31.133Z,33.71
2019-06-02T12:34:31.331Z,33.73
2019-06-02T12:35:35.757Z,33.79
2019-06-02T12:36:31.360Z,33.73
2019-06-02T12:37:45.872Z,33.63
2019-06-02T12:38:34.580Z,33.79
2019-06-02T12:39:31.290Z,33.87
2019-06-02T12:40:31.407Z,33.94
2019-06-02T12:41:31.458Z,34.02
2019-06-02T12:42:31.631Z,33.71
2019-06-02T12:43:31.508Z,33.49
2019-06-02T12:44:35.827Z,33.53
2019-06-02T12:45:31.922Z,33.5
2019-06-02T12:46:33.579Z,33.56
2019-06-02T12:47:31.697Z,33.34
2019-06-02T12:48:31.893Z,33.37
2019-06-02T12:49:31.754Z,33.42
2019-06-02T12:50:31.804Z,33.41
2019-06-02T12:51:31.644Z,33.29
2019-06-02T12:52:46.883Z,33.21
2019-06-02T12:53:46.363Z,33.06
2019-06-02T12:54:32.053Z,32.94
2019-06-02T12:56:32.338Z,33.22
2019-06-02T12:57:51.649Z,33.23
2019-06-02T12:58:32.202Z,33.23
2019-06-02T12:59:33.267Z,33.12
2019-06-02T13:00:38.277Z,33.11
2019-06-02T13:01:32.734Z,33.11
2019-06-02T13:02:47.202Z,32.96
2019-06-02T13:03:32.801Z,32.93
2019-06-02T13:04:32.696Z,33
2019-06-02T13:05:32.857Z,33.21
2019-06-02T13:06:48.904Z,33.39
2019-06-02T13:07:32.988Z,33.32
2019-06-02T13:08:33.581Z,33.23
2019-06-02T13:09:46.860Z,33.34
2019-06-02T13:10:47.774Z,33.32
2019-06-02T13:11:33.273Z,33.21
2019-06-02T13:12:32.962Z,33.15
2019-06-02T13:13:33.063Z,32.94
2019-06-02T13:14:33.320Z,32.77
2019-06-02T13:15:33.406Z,32.77
2019-06-02T13:16:33.255Z,32.75
2019-06-02T13:17:33.309Z,32.85
2019-06-02T13:18:33.204Z,32.78
2019-06-02T13:19:33.465Z,32.77
2019-06-02T13:20:32.522Z,32.87
2019-06-02T13:21:33.494Z,32.87
2019-06-02T13:22:48.504Z,32.99
2019-06-02T13:24:33.761Z,33.04
2019-06-02T13:25:47.335Z,32.99
2019-06-02T13:26:33.633Z,33.06
2019-06-02T13:27:33.514Z,33.16
2019-06-02T13:28:36.774Z,33.28
2019-06-02T13:29:34.019Z,33.21
2019-06-02T13:30:33.745Z,33.11
2019-06-02T13:31:33.799Z,33.18
2019-06-02T13:32:33.685Z,33.32
2019-06-02T13:33:34.760Z,33.21
2019-06-02T13:34:34.100Z,33.22
2019-06-02T13:35:34.048Z,33.14
2019-06-02T13:36:37.647Z,33.14
2019-06-02T13:37:33.775Z,33.07
2019-06-02T13:38:33.866Z,32.96
2019-06-02T13:39:34.524Z,32.97
2019-06-02T13:40:59.488Z,32.82
2019-06-02T13:41:34.226Z,32.88
2019-06-02T13:42:34.719Z,32.87
2019-06-02T13:43:34.361Z,32.99
2019-06-02T13:44:34.658Z,32.97
2019-06-02T13:45:35.019Z,32.97
2019-06-02T13:46:49.107Z,32.85